Au Train, Michigan
Current Conditions -  °F | °C
As of 4:37 AM on Saturday 20 Dec 2014 (Local Time) from KSAW Reporting Station
Broken Clouds Broken Clouds  
Wind Chill: 10°   Ceiling: 8500
Heat Index: 10°   Visibility: 10mi
Dew Point:   Wind: 0mph
Humidity: 89%   Direction: NA
Pressure: 30.21"   Gusts: NA
Location:  46.43°N, 86.84°W
Report Text: KSAW 200937Z AUTO 00000KT 10SM BKN085 M12/M14 A3021 RMK AO2 T11231138
Loading
Personal Weather Stations






























Interactive Weather Map New forecast layout! Learn more

10-Day Weather Forecast

Advertisements
Track Severe Weather on mobile